Arklow Fortune — EIFZ — position and weather

sailwx.info

Track history (hours):
 
Tides and Currents Weather Stations Pressure Air Temp Water Temp Dewpoint Dewpoint Depression Visibility Wind Speed Wind Dir Waves Ship Positions

Arklow Fortune

Last reported at 2018-Apr-20 12:25 UTC. Time now 2018-Apr-20 12:51 UTC.
Position N 53°44' W 006°17'.

Length 90 m; draft 3.8 m.

Type: Cargo ship. MMSI: 250000963.

Date/timePositionNaut miles runAvg speedWind from/ knotsBaromVisibWave heightAir tempDewpointWater temp
2018-Apr-20 12:25N 53°44' W 006°17'3 7.0
2018-Apr-20 12:00N 53°44' W 006°12'1 1.4
2018-Apr-20 11:30N 53°44' W 006°10'0 0.5
2018-Apr-20 10:57N 53°44' W 006°10'0 0.0
2018-Apr-20 10:24N 53°44' W 006°10'0 0.0
2018-Apr-20 10:00N 53°44' W 006°10'0 0.0
2018-Apr-20 09:30N 53°44' W 006°10'0 0.0
2018-Apr-20 09:00N 53°44' W 006°10'0 0.1
2018-Apr-20 08:30N 53°44' W 006°10'2 4.0
2018-Apr-20 07:58N 53°44' W 006°06'4 8.0
2018-Apr-20 07:30N 53°41' W 006°02'6 8.3
2018-Apr-20 06:48N 53°37' W 005°55'18 9.2
2018-Apr-20 04:51N 53°20' W 005°46'410.0
2018-Apr-20 04:30N 53°16' W 005°44'510.1
2018-Apr-20 03:58N 53°11' W 005°41'510.1
2018-Apr-20 03:27N 53°06' W 005°38'4 9.0
2018-Apr-20 03:00N 53°02' W 005°37'5 9.9
2018-Apr-20 02:30N 52°58' W 005°39'510.8
2018-Apr-20 02:01N 52°53' W 005°41'611.9
2018-Apr-20 01:30N 52°47' W 005°44'2113.4
2018-Apr-19 23:56N 52°26' W 005°52'614.4
2018-Apr-19 23:30N 52°20' W 005°55'714.5
2018-Apr-19 23:00N 52°13' W 005°57'714.4
2018-Apr-19 22:31N 52°07' W 006°02'714.3
2018-Apr-19 22:01N 52°02' W 006°11'2113.6
2018-Apr-19 20:29N 51°48' W 006°36'1912.5
2018-Apr-19 18:56N 51°35' W 006°59'512.3
2018-Apr-19 18:30N 51°31' W 007°05'712.2
2018-Apr-19 17:57N 51°27' W 007°13'512.2
2018-Apr-19 17:31N 51°23' W 007°19'612.2
2018-Apr-19 17:00N 51°19' W 007°26'612.2
2018-Apr-19 16:29N 51°15' W 007°34'812.1
2018-Apr-19 15:49N 51°09' W 007°44'612.0
2018-Apr-19 15:18N 51°05' W 007°51'411.8
2018-Apr-19 15:00N 51°03' W 007°55'611.6
2018-Apr-19 14:27N 50°59' W 008°03'811.2
2018-Apr-19 13:46N 50°54' W 008°12'711.1
2018-Apr-19 13:06N 50°56' W 008°23'311.1
2018-Apr-19 12:48N 50°58' W 008°28'511.1
2018-Apr-19 12:22N 50°59' W 008°35'711.1
2018-Apr-19 11:44N 51°02' W 008°45'411.1
2018-Apr-19 11:24N 51°04' W 008°50'911.1
2018-Apr-19 10:37N 51°07' W 009°03'111.1
2018-Apr-19 10:31N 51°07' W 009°05'611.2
2018-Apr-19 10:01N 51°09' W 009°13'611.3
2018-Apr-19 09:31N 51°11' W 009°22'611.4
2018-Apr-19 09:01N 51°13' W 009°30'611.5
2018-Apr-19 08:31N 51°16' W 009°38'611.6
2018-Apr-19 08:01N 51°19' W 009°46'611.6
2018-Apr-19 07:31N 51°22' W 009°54'611.5
2018-Apr-19 07:00N 51°25' W 010°02'611.4
2018-Apr-19 06:31N 51°28' W 010°10'611.5
2018-Apr-19 06:01N 51°32' W 010°17'510.1
2018-Apr-19 05:30N 51°35' W 010°24'10 9.3
2018-Apr-19 04:29N 51°42' W 010°34'7 8.3
2018-Apr-19 03:41N 51°47' W 010°39'3 8.4
2018-Apr-19 03:20N 51°50' W 010°41'5 8.4
2018-Apr-19 02:45N 51°55' W 010°44'2 8.1
2018-Apr-19 02:30N 51°57' W 010°45'9 8.1
2018-Apr-19 01:20N 52°06' W 010°50'3 8.8
2018-Apr-19 01:00N 52°07' W 010°46'5 8.8
2018-Apr-19 00:29N 52°10' W 010°40'5 9.5
2018-Apr-19 00:00N 52°13' W 010°34'810.3
2018-Apr-18 23:15N 52°17' W 010°24'410.6
2018-Apr-18 22:55N 52°19' W 010°19'911.0
2018-Apr-18 22:07N 52°24' W 010°07'711.2
2018-Apr-18 21:31N 52°27' W 009°57'010.9
2018-Apr-18 21:30N 52°28' W 009°57'711.2
2018-Apr-18 20:53N 52°31' W 009°48'512.5
2018-Apr-18 20:27N 52°35' W 009°40'5 0.1
2018-Apr-17 02:09N 52°32' W 009°47'1 7.3
2018-Apr-17 01:59N 52°31' W 009°49'3 5.9
2018-Apr-17 01:27N 52°29' W 009°53'2 5.4
2018-Apr-17 01:00N 52°28' W 009°56'3 5.4
2018-Apr-17 00:28N 52°26' W 009°60'2 5.1
2018-Apr-17 00:00N 52°25' W 010°03'3 5.1
2018-Apr-16 23:28N 52°24' W 010°07'2 4.9
2018-Apr-16 22:59N 52°22' W 010°10'3 5.1
2018-Apr-16 22:30N 52°21' W 010°14'6 5.2
2018-Apr-16 21:16N 52°17' W 010°22'1 5.1
2018-Apr-16 20:59N 52°16' W 010°24'3 5.6
2018-Apr-16 20:30N 52°15' W 010°28'7 8.6
2018-Apr-16 19:45N 52°11' W 010°37'2 8.6
2018-Apr-16 19:29N 52°10' W 010°40'11 8.8
2018-Apr-16 18:14N 51°59' W 010°45'3010.0
2018-Apr-16 15:16N 51°34' W 010°20'310.4
2018-Apr-16 15:00N 51°32' W 010°17'510.1
2018-Apr-16 14:30N 51°28' W 010°12'5 9.1
2018-Apr-16 14:01N 51°26' W 010°06'5 9.0
2018-Apr-16 13:31N 51°24' W 009°59'5 9.4
2018-Apr-16 13:00N 51°22' W 009°53'5 9.7
2018-Apr-16 12:30N 51°19' W 009°46'5 9.5
2018-Apr-16 12:01N 51°17' W 009°39'5 9.3
2018-Apr-16 11:31N 51°15' W 009°33'5 9.3
2018-Apr-16 11:00N 51°13' W 009°26'5 9.4
2018-Apr-16 10:30N 51°11' W 009°19'223 8.2
2018-Apr-15 07:26N 50°05' W 003°43'4 9.3
2018-Apr-15 07:00N 50°06' W 003°37'5 9.3
2018-Apr-15 06:30N 50°07' W 003°30'5 9.4
2018-Apr-15 06:00N 50°08' W 003°23'5 9.5
2018-Apr-15 05:30N 50°09' W 003°15'5 9.9
2018-Apr-15 04:59N 50°09' W 003°07'510.1
2018-Apr-15 04:30N 50°10' W 002°60'6913.1
2018-Apr-14 23:17N 50°23' W 001°15'3710.2
2018-Apr-14 19:40N 50°30' W 000°18'2 9.1
2018-Apr-14 19:30N 50°30' W 000°16'5 9.3
2018-Apr-14 19:00N 50°31' W 000°08'5 9.8
2018-Apr-14 18:30N 50°32' W 000°01'510.3
2018-Apr-14 18:00N 50°34' E 000°07'711.1
2018-Apr-14 17:25N 50°35' E 000°17'511.9
2018-Apr-14 16:59N 50°37' E 000°25'712.5
2018-Apr-14 16:25N 50°39' E 000°35'512.7
2018-Apr-14 16:00N 50°42' E 000°42'612.7
2018-Apr-14 15:30N 50°46' E 000°50'3111.2
2018-Apr-14 12:44N 51°05' E 001°29'2 9.1
2018-Apr-14 12:30N 51°06' E 001°31'4 8.1
2018-Apr-14 12:01N 51°09' E 001°36'4 8.3
2018-Apr-14 11:30N 51°12' E 001°41'4 8.7
2018-Apr-14 11:01N 51°15' E 001°46'5 9.3
2018-Apr-14 10:30N 51°18' E 001°51'510.1
2018-Apr-14 10:01N 51°22' E 001°56'5 9.6
2018-Apr-14 09:30N 51°24' E 002°03'511.0
2018-Apr-14 09:00N 51°22' E 002°11'510.8
2018-Apr-14 08:30N 51°21' E 002°19'612.4
2018-Apr-14 07:59N 51°23' E 002°29'612.2
2018-Apr-14 07:30N 51°23' E 002°39'5 9.6
2018-Apr-14 07:00N 51°22' E 002°46'612.3
2018-Apr-14 06:30N 51°23' E 002°56'612.3
2018-Apr-14 06:00N 51°24' E 003°06'612.7
2018-Apr-14 05:30N 51°25' E 003°16'613.0
2018-Apr-14 05:00N 51°25' E 003°26'612.6
2018-Apr-14 04:30N 51°26' E 003°36'5 9.6
2018-Apr-14 04:00N 51°24' E 003°43'611.1
2018-Apr-14 03:31N 51°20' E 003°49'0 0.1
2018-Apr-14 03:01N 51°20' E 003°49'1 1.2
2018-Apr-14 02:31N 51°19' E 003°50'3 5.1
2018-Apr-14 02:01N 51°17' E 003°50'3 5.8
2018-Apr-14 01:30N 51°14' E 003°49'3 5.2
2018-Apr-14 01:01N 51°11' E 003°48'2 3.8
2018-Apr-14 00:31N 51°10' E 003°47'4 8.0
2018-Apr-14 00:01N 51°06' E 003°44'1 2.8
2018-Apr-13 23:30N 51°05' E 003°44'0 0.0
2018-Apr-13 22:50N 51°05' E 003°44'0 0.0
2018-Apr-13 22:26N 51°05' E 003°44'0 0.0
2018-Apr-13 21:59N 51°05' E 003°44'0 0.0
2018-Apr-13 21:29N 51°05' E 003°44'0 0.0
2018-Apr-13 20:53N 51°05' E 003°44'0 0.0
2018-Apr-13 20:29N 51°05' E 003°44'0 0.0
2018-Apr-13 19:53N 51°05' E 003°44'0 0.0
2018-Apr-13 19:29N 51°05' E 003°44'0 0.0
2018-Apr-13 18:53N 51°05' E 003°44'0 0.0
2018-Apr-13 18:29N 51°05' E 003°44'0 0.0
2018-Apr-13 17:53N 51°05' E 003°44'0 0.0
2018-Apr-13 17:29N 51°05' E 003°44'0 0.0
2018-Apr-13 16:59N 51°05' E 003°44'0 0.0
2018-Apr-13 16:29N 51°05' E 003°44'0 0.0
2018-Apr-13 15:59N 51°05' E 003°44'0 0.0
2018-Apr-13 15:29N 51°05' E 003°44'0 0.0
2018-Apr-13 14:35N 51°05' E 003°44'0 0.0
2018-Apr-13 14:23N 51°05' E 003°44'0 0.0
2018-Apr-13 13:53N 51°05' E 003°44'0 0.0
2018-Apr-13 13:23N 51°05' E 003°44'0 0.0
2018-Apr-13 12:59N 51°05' E 003°44'0 0.0
2018-Apr-13 12:29N 51°05' E 003°44'0 0.0
2018-Apr-13 11:59N 51°05' E 003°44'0 0.0
2018-Apr-13 11:29N 51°05' E 003°44'0 0.0
2018-Apr-13 10:59N 51°05' E 003°44'0 0.0
2018-Apr-13 10:29N 51°05' E 003°44'0 0.0
2018-Apr-13 09:59N 51°05' E 003°44'0 0.0
2018-Apr-13 09:29N 51°05' E 003°44'0 0.0
2018-Apr-13 08:59N 51°05' E 003°44'0 0.0
2018-Apr-13 08:23N 51°05' E 003°44'0 0.0
2018-Apr-13 07:59N 51°05' E 003°44'0 0.0
2018-Apr-13 07:29N 51°05' E 003°44'0 0.0
2018-Apr-13 06:59N 51°05' E 003°44'0 0.0
2018-Apr-13 06:29N 51°05' E 003°44'0 0.0
2018-Apr-13 05:47N 51°05' E 003°44'0 0.0
2018-Apr-13 05:29N 51°05' E 003°44'0 0.0
2018-Apr-13 04:59N 51°05' E 003°44'0 0.0
2018-Apr-13 04:29N 51°05' E 003°44'0 0.0
2018-Apr-13 03:59N 51°05' E 003°44'0 0.0
2018-Apr-13 03:29N 51°05' E 003°44'0 0.0
2018-Apr-13 02:59N 51°05' E 003°44'0 0.0
2018-Apr-13 02:29N 51°05' E 003°44'0 0.0
2018-Apr-13 01:59N 51°05' E 003°44'0 0.0
2018-Apr-13 01:17N 51°05' E 003°44'0 0.0
2018-Apr-13 00:59N 51°05' E 003°44'0 0.0
2018-Apr-13 00:23N 51°05' E 003°44'0 0.0
2018-Apr-12 23:59N 51°05' E 003°44'0 0.0
2018-Apr-12 23:11N 51°05' E 003°44'0 0.0
2018-Apr-12 22:59N 51°05' E 003°44'0 0.0
2018-Apr-12 22:23N 51°05' E 003°44'0 0.0
2018-Apr-12 21:53N 51°05' E 003°44'0 0.0
2018-Apr-12 21:29N 51°05' E 003°44'0 0.0
2018-Apr-12 20:59N 51°05' E 003°44'0 0.0
2018-Apr-12 20:29N 51°05' E 003°44'0 0.0
2018-Apr-12 19:59N 51°05' E 003°44'0 0.0
2018-Apr-12 19:29N 51°05' E 003°44'0 0.0
2018-Apr-12 18:59N 51°05' E 003°44'0 0.0
2018-Apr-12 18:29N 51°05' E 003°44'0 0.0
2018-Apr-12 17:59N 51°05' E 003°44'0 0.0
2018-Apr-12 17:29N 51°05' E 003°44'0 0.0
2018-Apr-12 16:59N 51°05' E 003°44'0 0.0
2018-Apr-12 16:23N 51°05' E 003°44'0 0.0
2018-Apr-12 15:59N 51°05' E 003°44'0 0.0
2018-Apr-12 15:29N 51°05' E 003°44'0 0.0
2018-Apr-12 14:59N 51°05' E 003°44'0 0.0
2018-Apr-12 14:23N 51°05' E 003°44'0 0.0
2018-Apr-12 13:53N 51°05' E 003°44'0 0.0
2018-Apr-12 13:29N 51°05' E 003°44'0 0.0
2018-Apr-12 12:59N 51°05' E 003°44'0 0.0
2018-Apr-12 12:23N 51°05' E 003°44'0 0.0
2018-Apr-12 11:59N 51°05' E 003°44'0 0.0
2018-Apr-12 11:29N 51°05' E 003°44'0 0.0
2018-Apr-12 10:53N 51°05' E 003°44'0 0.0
2018-Apr-12 10:29N 51°05' E 003°44'0 0.0
2018-Apr-12 09:44N 51°05' E 003°44'0 0.0
2018-Apr-12 09:23N 51°05' E 003°44'0 0.0
2018-Apr-12 08:59N 51°05' E 003°44'0 0.0
2018-Apr-12 08:29N 51°05' E 003°44'2 4.3
2018-Apr-12 08:00N 51°07' E 003°45'4 8.6
2018-Apr-12 07:30N 51°11' E 003°48'4 7.8
2018-Apr-12 07:00N 51°14' E 003°49'3 6.1
2018-Apr-12 06:31N 51°17' E 003°50'2 4.9
2018-Apr-12 06:00N 51°20' E 003°49'0 0.0
2018-Apr-12 05:31N 51°20' E 003°49'0 0.8
2018-Apr-12 05:00N 51°20' E 003°49'2 3.2
2018-Apr-12 04:30N 51°21' E 003°47'5 9.1
2018-Apr-12 04:00N 51°24' E 003°41'5 9.7
2018-Apr-12 03:30N 51°26' E 003°34'5 9.6
2018-Apr-12 03:00N 51°30' E 003°29'1511.6
2018-Apr-12 01:42N 51°42' E 003°16'7111.3
2018-Apr-11 19:22N 52°31' E 001°51'412.4
2018-Apr-11 19:00N 52°34' E 001°46'2 3.0
2018-Apr-11 18:31N 52°35' E 001°44'1 1.4
2018-Apr-11 18:00N 52°36' E 001°44'0 0.0
2018-Apr-11 17:30N 52°36' E 001°44'0 0.0
2018-Apr-11 16:57N 52°36' E 001°44'0 0.0
2018-Apr-11 16:30N 52°36' E 001°44'0 0.0
2018-Apr-11 16:00N 52°36' E 001°44'0 0.0
2018-Apr-11 15:30N 52°36' E 001°44'0 0.0
2018-Apr-11 15:00N 52°36' E 001°44'0 0.0
2018-Apr-11 14:30N 52°36' E 001°44'0 0.0
2018-Apr-11 14:00N 52°36' E 001°44'0 0.0
2018-Apr-11 13:30N 52°36' E 001°44'0 0.0
2018-Apr-11 13:00N 52°36' E 001°44'0 0.0
2018-Apr-11 12:30N 52°36' E 001°44'0 0.0
2018-Apr-11 12:00N 52°36' E 001°44'0 0.0
2018-Apr-11 11:30N 52°36' E 001°44'0 0.0
2018-Apr-11 11:00N 52°36' E 001°44'0 0.0
2018-Apr-11 10:30N 52°36' E 001°44'0 0.0
2018-Apr-11 10:00N 52°36' E 001°44'0 0.0
2018-Apr-11 09:30N 52°36' E 001°44'0 0.0
2018-Apr-11 09:00N 52°36' E 001°44'0 0.0
2018-Apr-11 08:30N 52°36' E 001°44'0 0.0
2018-Apr-11 07:57N 52°36' E 001°44'0 0.0
2018-Apr-11 07:03N 52°36' E 001°44'0 0.0
2018-Apr-11 06:54N 52°36' E 001°44'0 0.0
2018-Apr-11 06:30N 52°36' E 001°44'0 0.0
2018-Apr-11 05:57N 52°36' E 001°44'0 0.0
2018-Apr-11 05:30N 52°36' E 001°44'0 0.0
2018-Apr-11 05:00N 52°36' E 001°44'0 0.0
2018-Apr-11 04:30N 52°36' E 001°44'0 0.0
2018-Apr-11 04:00N 52°36' E 001°44'0 0.0
2018-Apr-11 03:30N 52°36' E 001°44'0 0.0
2018-Apr-11 02:57N 52°36' E 001°44'0 0.0
2018-Apr-11 02:30N 52°36' E 001°44'0 0.0
2018-Apr-11 01:57N 52°36' E 001°44'0 0.0
2018-Apr-11 01:27N 52°36' E 001°44'0 0.0
2018-Apr-11 00:57N 52°36' E 001°44'0 0.0
2018-Apr-11 00:27N 52°36' E 001°44'0 0.0
2018-Apr-10 23:57N 52°36' E 001°44'0 0.0
2018-Apr-10 23:27N 52°36' E 001°44'0 0.0
2018-Apr-10 22:57N 52°36' E 001°44'0 0.0
2018-Apr-10 22:27N 52°36' E 001°44'0 0.0
2018-Apr-10 21:57N 52°36' E 001°44'0 0.0
2018-Apr-10 21:27N 52°36' E 001°44'0 0.0
2018-Apr-10 20:57N 52°36' E 001°44'0 0.0
2018-Apr-10 20:30N 52°36' E 001°44'0 0.0
2018-Apr-10 20:00N 52°36' E 001°44'0 0.0
2018-Apr-10 19:27N 52°36' E 001°44'0 0.0
2018-Apr-10 19:00N 52°36' E 001°44'0 0.0
2018-Apr-10 18:30N 52°36' E 001°44'0 0.0
2018-Apr-10 17:21N 52°36' E 001°44'0 0.0
2018-Apr-10 16:57N 52°36' E 001°44'0 0.0
2018-Apr-10 16:21N 52°36' E 001°44'0 0.0
2018-Apr-10 16:00N 52°36' E 001°44'0 0.0
2018-Apr-10 15:30N 52°36' E 001°44'0 0.0
2018-Apr-10 15:00N 52°36' E 001°44'0 0.0
2018-Apr-10 14:30N 52°36' E 001°44'0 0.0
2018-Apr-10 14:00N 52°36' E 001°44'0 0.0
2018-Apr-10 13:30N 52°36' E 001°44'0 0.0
2018-Apr-10 13:00N 52°36' E 001°44'0 0.0
2018-Apr-10 12:30N 52°36' E 001°44'  
Track history (hours):
 
Tides and Currents Weather Stations Pressure Air Temp Water Temp Dewpoint Dewpoint Depression Visibility Wind Speed Wind Dir Waves Ship Positions

Arklow Fortune

Last reported at 2018-Apr-20 12:25 UTC. Time now 2018-Apr-20 12:51 UTC.
Position N 53°44' W 006°17'.

Length 90 m; draft 3.8 m.

Type: Cargo ship. MMSI: 250000963.

Date/timePositionNaut miles runAvg speedWind from/ knotsBaromVisibWave heightAir tempDewpointWater temp
2018-Apr-20 12:25N 53°44' W 006°17'3 7.0
2018-Apr-20 12:00N 53°44' W 006°12'1 1.4
2018-Apr-20 11:30N 53°44' W 006°10'0 0.5
2018-Apr-20 10:57N 53°44' W 006°10'0 0.0
2018-Apr-20 10:24N 53°44' W 006°10'0 0.0
2018-Apr-20 10:00N 53°44' W 006°10'0 0.0
2018-Apr-20 09:30N 53°44' W 006°10'0 0.0
2018-Apr-20 09:00N 53°44' W 006°10'0 0.1
2018-Apr-20 08:30N 53°44' W 006°10'2 4.0
2018-Apr-20 07:58N 53°44' W 006°06'4 8.0
2018-Apr-20 07:30N 53°41' W 006°02'6 8.3
2018-Apr-20 06:48N 53°37' W 005°55'18 9.2
2018-Apr-20 04:51N 53°20' W 005°46'410.0
2018-Apr-20 04:30N 53°16' W 005°44'510.1
2018-Apr-20 03:58N 53°11' W 005°41'510.1
2018-Apr-20 03:27N 53°06' W 005°38'4 9.0
2018-Apr-20 03:00N 53°02' W 005°37'5 9.9
2018-Apr-20 02:30N 52°58' W 005°39'510.8
2018-Apr-20 02:01N 52°53' W 005°41'611.9
2018-Apr-20 01:30N 52°47' W 005°44'2113.4
2018-Apr-19 23:56N 52°26' W 005°52'614.4
2018-Apr-19 23:30N 52°20' W 005°55'714.5
2018-Apr-19 23:00N 52°13' W 005°57'714.4
2018-Apr-19 22:31N 52°07' W 006°02'714.3
2018-Apr-19 22:01N 52°02' W 006°11'2113.6
2018-Apr-19 20:29N 51°48' W 006°36'1912.5
2018-Apr-19 18:56N 51°35' W 006°59'512.3
2018-Apr-19 18:30N 51°31' W 007°05'712.2
2018-Apr-19 17:57N 51°27' W 007°13'512.2
2018-Apr-19 17:31N 51°23' W 007°19'612.2
2018-Apr-19 17:00N 51°19' W 007°26'612.2
2018-Apr-19 16:29N 51°15' W 007°34'812.1
2018-Apr-19 15:49N 51°09' W 007°44'612.0
2018-Apr-19 15:18N 51°05' W 007°51'411.8
2018-Apr-19 15:00N 51°03' W 007°55'611.6
2018-Apr-19 14:27N 50°59' W 008°03'811.2
2018-Apr-19 13:46N 50°54' W 008°12'711.1
2018-Apr-19 13:06N 50°56' W 008°23'311.1
2018-Apr-19 12:48N 50°58' W 008°28'511.1
2018-Apr-19 12:22N 50°59' W 008°35'711.1
2018-Apr-19 11:44N 51°02' W 008°45'411.1
2018-Apr-19 11:24N 51°04' W 008°50'911.1
2018-Apr-19 10:37N 51°07' W 009°03'111.1
2018-Apr-19 10:31N 51°07' W 009°05'611.2
2018-Apr-19 10:01N 51°09' W 009°13'611.3
2018-Apr-19 09:31N 51°11' W 009°22'611.4
2018-Apr-19 09:01N 51°13' W 009°30'611.5
2018-Apr-19 08:31N 51°16' W 009°38'611.6
2018-Apr-19 08:01N 51°19' W 009°46'611.6
2018-Apr-19 07:31N 51°22' W 009°54'611.5
2018-Apr-19 07:00N 51°25' W 010°02'611.4
2018-Apr-19 06:31N 51°28' W 010°10'611.5
2018-Apr-19 06:01N 51°32' W 010°17'510.1
2018-Apr-19 05:30N 51°35' W 010°24'10 9.3
2018-Apr-19 04:29N 51°42' W 010°34'7 8.3
2018-Apr-19 03:41N 51°47' W 010°39'3 8.4
2018-Apr-19 03:20N 51°50' W 010°41'5 8.4
2018-Apr-19 02:45N 51°55' W 010°44'2 8.1
2018-Apr-19 02:30N 51°57' W 010°45'9 8.1
2018-Apr-19 01:20N 52°06' W 010°50'3 8.8
2018-Apr-19 01:00N 52°07' W 010°46'5 8.8
2018-Apr-19 00:29N 52°10' W 010°40'5 9.5
2018-Apr-19 00:00N 52°13' W 010°34'810.3
2018-Apr-18 23:15N 52°17' W 010°24'410.6
2018-Apr-18 22:55N 52°19' W 010°19'911.0
2018-Apr-18 22:07N 52°24' W 010°07'711.2
2018-Apr-18 21:31N 52°27' W 009°57'010.9
2018-Apr-18 21:30N 52°28' W 009°57'711.2
2018-Apr-18 20:53N 52°31' W 009°48'512.5
2018-Apr-18 20:27N 52°35' W 009°40'5 0.1
2018-Apr-17 02:09N 52°32' W 009°47'1 7.3
2018-Apr-17 01:59N 52°31' W 009°49'3 5.9
2018-Apr-17 01:27N 52°29' W 009°53'2 5.4
2018-Apr-17 01:00N 52°28' W 009°56'3 5.4
2018-Apr-17 00:28N 52°26' W 009°60'2 5.1
2018-Apr-17 00:00N 52°25' W 010°03'3 5.1
2018-Apr-16 23:28N 52°24' W 010°07'2 4.9
2018-Apr-16 22:59N 52°22' W 010°10'3 5.1
2018-Apr-16 22:30N 52°21' W 010°14'6 5.2
2018-Apr-16 21:16N 52°17' W 010°22'1 5.1
2018-Apr-16 20:59N 52°16' W 010°24'3 5.6
2018-Apr-16 20:30N 52°15' W 010°28'7 8.6
2018-Apr-16 19:45N 52°11' W 010°37'2 8.6
2018-Apr-16 19:29N 52°10' W 010°40'11 8.8
2018-Apr-16 18:14N 51°59' W 010°45'3010.0
2018-Apr-16 15:16N 51°34' W 010°20'310.4
2018-Apr-16 15:00N 51°32' W 010°17'510.1
2018-Apr-16 14:30N 51°28' W 010°12'5 9.1
2018-Apr-16 14:01N 51°26' W 010°06'5 9.0
2018-Apr-16 13:31N 51°24' W 009°59'5 9.4
2018-Apr-16 13:00N 51°22' W 009°53'5 9.7
2018-Apr-16 12:30N 51°19' W 009°46'5 9.5
2018-Apr-16 12:01N 51°17' W 009°39'5 9.3
2018-Apr-16 11:31N 51°15' W 009°33'5 9.3
2018-Apr-16 11:00N 51°13' W 009°26'5 9.4
2018-Apr-16 10:30N 51°11' W 009°19'223 8.2
2018-Apr-15 07:26N 50°05' W 003°43'4 9.3
2018-Apr-15 07:00N 50°06' W 003°37'5 9.3
2018-Apr-15 06:30N 50°07' W 003°30'5 9.4
2018-Apr-15 06:00N 50°08' W 003°23'5 9.5
2018-Apr-15 05:30N 50°09' W 003°15'5 9.9
2018-Apr-15 04:59N 50°09' W 003°07'510.1
2018-Apr-15 04:30N 50°10' W 002°60'6913.1
2018-Apr-14 23:17N 50°23' W 001°15'3710.2
2018-Apr-14 19:40N 50°30' W 000°18'2 9.1
2018-Apr-14 19:30N 50°30' W 000°16'5 9.3
2018-Apr-14 19:00N 50°31' W 000°08'5 9.8
2018-Apr-14 18:30N 50°32' W 000°01'510.3
2018-Apr-14 18:00N 50°34' E 000°07'711.1
2018-Apr-14 17:25N 50°35' E 000°17'511.9
2018-Apr-14 16:59N 50°37' E 000°25'712.5
2018-Apr-14 16:25N 50°39' E 000°35'512.7
2018-Apr-14 16:00N 50°42' E 000°42'612.7
2018-Apr-14 15:30N 50°46' E 000°50'3111.2
2018-Apr-14 12:44N 51°05' E 001°29'2 9.1
2018-Apr-14 12:30N 51°06' E 001°31'4 8.1
2018-Apr-14 12:01N 51°09' E 001°36'4 8.3
2018-Apr-14 11:30N 51°12' E 001°41'4 8.7
2018-Apr-14 11:01N 51°15' E 001°46'5 9.3
2018-Apr-14 10:30N 51°18' E 001°51'510.1
2018-Apr-14 10:01N 51°22' E 001°56'5 9.6
2018-Apr-14 09:30N 51°24' E 002°03'511.0
2018-Apr-14 09:00N 51°22' E 002°11'510.8
2018-Apr-14 08:30N 51°21' E 002°19'612.4
2018-Apr-14 07:59N 51°23' E 002°29'612.2
2018-Apr-14 07:30N 51°23' E 002°39'5 9.6
2018-Apr-14 07:00N 51°22' E 002°46'612.3
2018-Apr-14 06:30N 51°23' E 002°56'612.3
2018-Apr-14 06:00N 51°24' E 003°06'612.7
2018-Apr-14 05:30N 51°25' E 003°16'613.0
2018-Apr-14 05:00N 51°25' E 003°26'612.6
2018-Apr-14 04:30N 51°26' E 003°36'5 9.6
2018-Apr-14 04:00N 51°24' E 003°43'611.1
2018-Apr-14 03:31N 51°20' E 003°49'0 0.1
2018-Apr-14 03:01N 51°20' E 003°49'1 1.2
2018-Apr-14 02:31N 51°19' E 003°50'3 5.1
2018-Apr-14 02:01N 51°17' E 003°50'3 5.8
2018-Apr-14 01:30N 51°14' E 003°49'3 5.2
2018-Apr-14 01:01N 51°11' E 003°48'2 3.8
2018-Apr-14 00:31N 51°10' E 003°47'4 8.0
2018-Apr-14 00:01N 51°06' E 003°44'1 2.8
2018-Apr-13 23:30N 51°05' E 003°44'0 0.0
2018-Apr-13 22:50N 51°05' E 003°44'0 0.0
2018-Apr-13 22:26N 51°05' E 003°44'0 0.0
2018-Apr-13 21:59N 51°05' E 003°44'0 0.0
2018-Apr-13 21:29N 51°05' E 003°44'0 0.0
2018-Apr-13 20:53N 51°05' E 003°44'0 0.0
2018-Apr-13 20:29N 51°05' E 003°44'0 0.0
2018-Apr-13 19:53N 51°05' E 003°44'0 0.0
2018-Apr-13 19:29N 51°05' E 003°44'0 0.0
2018-Apr-13 18:53N 51°05' E 003°44'0 0.0
2018-Apr-13 18:29N 51°05' E 003°44'0 0.0
2018-Apr-13 17:53N 51°05' E 003°44'0 0.0
2018-Apr-13 17:29N 51°05' E 003°44'0 0.0
2018-Apr-13 16:59N 51°05' E 003°44'0 0.0
2018-Apr-13 16:29N 51°05' E 003°44'0 0.0
2018-Apr-13 15:59N 51°05' E 003°44'0 0.0
2018-Apr-13 15:29N 51°05' E 003°44'0 0.0
2018-Apr-13 14:35N 51°05' E 003°44'0 0.0
2018-Apr-13 14:23N 51°05' E 003°44'0 0.0
2018-Apr-13 13:53N 51°05' E 003°44'0 0.0
2018-Apr-13 13:23N 51°05' E 003°44'0 0.0
2018-Apr-13 12:59N 51°05' E 003°44'0 0.0
2018-Apr-13 12:29N 51°05' E 003°44'0 0.0
2018-Apr-13 11:59N 51°05' E 003°44'0 0.0
2018-Apr-13 11:29N 51°05' E 003°44'0 0.0
2018-Apr-13 10:59N 51°05' E 003°44'0 0.0
2018-Apr-13 10:29N 51°05' E 003°44'0 0.0
2018-Apr-13 09:59N 51°05' E 003°44'0 0.0
2018-Apr-13 09:29N 51°05' E 003°44'0 0.0
2018-Apr-13 08:59N 51°05' E 003°44'0 0.0
2018-Apr-13 08:23N 51°05' E 003°44'0 0.0
2018-Apr-13 07:59N 51°05' E 003°44'0 0.0
2018-Apr-13 07:29N 51°05' E 003°44'0 0.0
2018-Apr-13 06:59N 51°05' E 003°44'0 0.0
2018-Apr-13 06:29N 51°05' E 003°44'0 0.0
2018-Apr-13 05:47N 51°05' E 003°44'0 0.0
2018-Apr-13 05:29N 51°05' E 003°44'0 0.0
2018-Apr-13 04:59N 51°05' E 003°44'0 0.0
2018-Apr-13 04:29N 51°05' E 003°44'0 0.0
2018-Apr-13 03:59N 51°05' E 003°44'0 0.0
2018-Apr-13 03:29N 51°05' E 003°44'0 0.0
2018-Apr-13 02:59N 51°05' E 003°44'0 0.0
2018-Apr-13 02:29N 51°05' E 003°44'0 0.0
2018-Apr-13 01:59N 51°05' E 003°44'0 0.0
2018-Apr-13 01:17N 51°05' E 003°44'0 0.0
2018-Apr-13 00:59N 51°05' E 003°44'0 0.0
2018-Apr-13 00:23N 51°05' E 003°44'0 0.0
2018-Apr-12 23:59N 51°05' E 003°44'0 0.0
2018-Apr-12 23:11N 51°05' E 003°44'0 0.0
2018-Apr-12 22:59N 51°05' E 003°44'0 0.0
2018-Apr-12 22:23N 51°05' E 003°44'0 0.0
2018-Apr-12 21:53N 51°05' E 003°44'0 0.0
2018-Apr-12 21:29N 51°05' E 003°44'0 0.0
2018-Apr-12 20:59N 51°05' E 003°44'0 0.0
2018-Apr-12 20:29N 51°05' E 003°44'0 0.0
2018-Apr-12 19:59N 51°05' E 003°44'0 0.0
2018-Apr-12 19:29N 51°05' E 003°44'0 0.0
2018-Apr-12 18:59N 51°05' E 003°44'0 0.0
2018-Apr-12 18:29N 51°05' E 003°44'0 0.0
2018-Apr-12 17:59N 51°05' E 003°44'0 0.0
2018-Apr-12 17:29N 51°05' E 003°44'0 0.0
2018-Apr-12 16:59N 51°05' E 003°44'0 0.0
2018-Apr-12 16:23N 51°05' E 003°44'0 0.0
2018-Apr-12 15:59N 51°05' E 003°44'0 0.0
2018-Apr-12 15:29N 51°05' E 003°44'0 0.0
2018-Apr-12 14:59N 51°05' E 003°44'0 0.0
2018-Apr-12 14:23N 51°05' E 003°44'0 0.0
2018-Apr-12 13:53N 51°05' E 003°44'0 0.0
2018-Apr-12 13:29N 51°05' E 003°44'0 0.0
2018-Apr-12 12:59N 51°05' E 003°44'0 0.0
2018-Apr-12 12:23N 51°05' E 003°44'0 0.0
2018-Apr-12 11:59N 51°05' E 003°44'0 0.0
2018-Apr-12 11:29N 51°05' E 003°44'0 0.0
2018-Apr-12 10:53N 51°05' E 003°44'0 0.0
2018-Apr-12 10:29N 51°05' E 003°44'0 0.0
2018-Apr-12 09:44N 51°05' E 003°44'0 0.0
2018-Apr-12 09:23N 51°05' E 003°44'0 0.0
2018-Apr-12 08:59N 51°05' E 003°44'0 0.0
2018-Apr-12 08:29N 51°05' E 003°44'2 4.3
2018-Apr-12 08:00N 51°07' E 003°45'4 8.6
2018-Apr-12 07:30N 51°11' E 003°48'4 7.8
2018-Apr-12 07:00N 51°14' E 003°49'3 6.1
2018-Apr-12 06:31N 51°17' E 003°50'2 4.9
2018-Apr-12 06:00N 51°20' E 003°49'0 0.0
2018-Apr-12 05:31N 51°20' E 003°49'0 0.8
2018-Apr-12 05:00N 51°20' E 003°49'2 3.2
2018-Apr-12 04:30N 51°21' E 003°47'5 9.1
2018-Apr-12 04:00N 51°24' E 003°41'5 9.7
2018-Apr-12 03:30N 51°26' E 003°34'5 9.6
2018-Apr-12 03:00N 51°30' E 003°29'1511.6
2018-Apr-12 01:42N 51°42' E 003°16'7111.3
2018-Apr-11 19:22N 52°31' E 001°51'412.4
2018-Apr-11 19:00N 52°34' E 001°46'2 3.0
2018-Apr-11 18:31N 52°35' E 001°44'1 1.4
2018-Apr-11 18:00N 52°36' E 001°44'0 0.0
2018-Apr-11 17:30N 52°36' E 001°44'0 0.0
2018-Apr-11 16:57N 52°36' E 001°44'0 0.0
2018-Apr-11 16:30N 52°36' E 001°44'0 0.0
2018-Apr-11 16:00N 52°36' E 001°44'0 0.0
2018-Apr-11 15:30N 52°36' E 001°44'0 0.0
2018-Apr-11 15:00N 52°36' E 001°44'0 0.0
2018-Apr-11 14:30N 52°36' E 001°44'0 0.0
2018-Apr-11 14:00N 52°36' E 001°44'0 0.0
2018-Apr-11 13:30N 52°36' E 001°44'0 0.0
2018-Apr-11 13:00N 52°36' E 001°44'0 0.0
2018-Apr-11 12:30N 52°36' E 001°44'0 0.0
2018-Apr-11 12:00N 52°36' E 001°44'0 0.0
2018-Apr-11 11:30N 52°36' E 001°44'0 0.0
2018-Apr-11 11:00N 52°36' E 001°44'0 0.0
2018-Apr-11 10:30N 52°36' E 001°44'0 0.0
2018-Apr-11 10:00N 52°36' E 001°44'0 0.0
2018-Apr-11 09:30N 52°36' E 001°44'0 0.0
2018-Apr-11 09:00N 52°36' E 001°44'0 0.0
2018-Apr-11 08:30N 52°36' E 001°44'0 0.0
2018-Apr-11 07:57N 52°36' E 001°44'0 0.0
2018-Apr-11 07:03N 52°36' E 001°44'0 0.0
2018-Apr-11 06:54N 52°36' E 001°44'0 0.0
2018-Apr-11 06:30N 52°36' E 001°44'0 0.0
2018-Apr-11 05:57N 52°36' E 001°44'0 0.0
2018-Apr-11 05:30N 52°36' E 001°44'0 0.0
2018-Apr-11 05:00N 52°36' E 001°44'0 0.0
2018-Apr-11 04:30N 52°36' E 001°44'0 0.0
2018-Apr-11 04:00N 52°36' E 001°44'0 0.0
2018-Apr-11 03:30N 52°36' E 001°44'0 0.0
2018-Apr-11 02:57N 52°36' E 001°44'0 0.0
2018-Apr-11 02:30N 52°36' E 001°44'0 0.0
2018-Apr-11 01:57N 52°36' E 001°44'0 0.0
2018-Apr-11 01:27N 52°36' E 001°44'0 0.0
2018-Apr-11 00:57N 52°36' E 001°44'0 0.0
2018-Apr-11 00:27N 52°36' E 001°44'0 0.0
2018-Apr-10 23:57N 52°36' E 001°44'0 0.0
2018-Apr-10 23:27N 52°36' E 001°44'0 0.0
2018-Apr-10 22:57N 52°36' E 001°44'0 0.0
2018-Apr-10 22:27N 52°36' E 001°44'0 0.0
2018-Apr-10 21:57N 52°36' E 001°44'0 0.0
2018-Apr-10 21:27N 52°36' E 001°44'0 0.0
2018-Apr-10 20:57N 52°36' E 001°44'0 0.0
2018-Apr-10 20:30N 52°36' E 001°44'0 0.0
2018-Apr-10 20:00N 52°36' E 001°44'0 0.0
2018-Apr-10 19:27N 52°36' E 001°44'0 0.0
2018-Apr-10 19:00N 52°36' E 001°44'0 0.0
2018-Apr-10 18:30N 52°36' E 001°44'0 0.0
2018-Apr-10 17:21N 52°36' E 001°44'0 0.0
2018-Apr-10 16:57N 52°36' E 001°44'0 0.0
2018-Apr-10 16:21N 52°36' E 001°44'0 0.0
2018-Apr-10 16:00N 52°36' E 001°44'0 0.0
2018-Apr-10 15:30N 52°36' E 001°44'0 0.0
2018-Apr-10 15:00N 52°36' E 001°44'0 0.0
2018-Apr-10 14:30N 52°36' E 001°44'0 0.0
2018-Apr-10 14:00N 52°36' E 001°44'0 0.0
2018-Apr-10 13:30N 52°36' E 001°44'0 0.0
2018-Apr-10 13:00N 52°36' E 001°44'0 0.0
2018-Apr-10 12:30N 52°36' E 001°44'  

Dump ship's entire track history